createdAt,value
2018-12-12T00:01:07.311Z,1.60
2018-12-12T00:03:36.018Z,1.60
2018-12-12T00:06:04.855Z,1.70
2018-12-12T00:08:33.403Z,1.60
2018-12-12T00:11:02.243Z,1.60
2018-12-12T00:13:31.022Z,1.70
2018-12-12T00:15:59.552Z,1.60
2018-12-12T00:18:28.082Z,1.60
2018-12-12T00:20:56.616Z,1.60
2018-12-12T00:23:25.459Z,1.60
2018-12-12T00:25:54.136Z,1.60
2018-12-12T00:28:22.685Z,1.60
2018-12-12T00:30:51.405Z,1.60
2018-12-12T00:33:20.169Z,1.60
2018-12-12T00:35:49.354Z,1.60
2018-12-12T00:38:17.879Z,1.60
2018-12-12T00:40:46.385Z,1.60
2018-12-12T00:43:15.411Z,1.60
2018-12-12T00:45:43.997Z,1.60
2018-12-12T00:48:12.720Z,1.60
2018-12-12T00:50:41.324Z,1.60
2018-12-12T00:53:10.002Z,1.70
2018-12-12T00:55:38.592Z,1.60
2018-12-12T00:58:07.181Z,1.70
2018-12-12T01:00:35.956Z,1.60
2018-12-12T01:03:04.729Z,1.60
2018-12-12T01:05:34.541Z,1.60
2018-12-12T01:08:03.072Z,1.60
2018-12-12T01:10:32.459Z,1.60
2018-12-12T01:13:01.008Z,1.60
2018-12-12T01:15:29.711Z,1.60
2018-12-12T01:17:58.560Z,1.60
2018-12-12T01:20:28.372Z,1.50
2018-12-12T01:22:56.882Z,1.60
2018-12-12T01:25:25.632Z,1.60
2018-12-12T01:27:54.216Z,1.60
2018-12-12T01:30:22.943Z,1.50
2018-12-12T01:32:51.476Z,1.60
2018-12-12T01:35:23.547Z,1.60
2018-12-12T01:38:08.492Z,1.60
2018-12-12T01:40:37.752Z,1.60
2018-12-12T01:43:06.260Z,1.60
2018-12-12T01:45:34.782Z,1.50
2018-12-12T01:48:03.318Z,1.50
2018-12-12T01:50:32.088Z,1.60
2018-12-12T01:53:00.590Z,1.60
2018-12-12T01:55:29.183Z,1.50
2018-12-12T01:57:57.702Z,1.50
2018-12-12T02:00:26.281Z,1.50
2018-12-12T02:02:54.924Z,1.50
2018-12-12T02:05:23.558Z,1.60
2018-12-12T02:07:52.396Z,1.50
2018-12-12T02:10:20.925Z,1.50
2018-12-12T02:13:00.913Z,1.50
2018-12-12T02:15:29.821Z,1.60
2018-12-12T02:17:58.440Z,1.60
2018-12-12T02:20:27.047Z,1.60
2018-12-12T02:22:56.067Z,1.60
2018-12-12T02:25:24.592Z,1.60
2018-12-12T02:27:53.833Z,1.60
2018-12-12T02:30:22.370Z,1.50
2018-12-12T02:32:51.292Z,1.60
2018-12-12T02:35:19.821Z,1.60
2018-12-12T02:37:48.482Z,1.60
2018-12-12T02:40:17.171Z,1.60
2018-12-12T02:42:46.062Z,1.60
2018-12-12T02:45:14.635Z,1.60
2018-12-12T02:47:43.244Z,1.50
2018-12-12T02:50:11.860Z,1.50
2018-12-12T02:52:40.351Z,1.60
2018-12-12T02:55:08.896Z,1.60
2018-12-12T02:57:37.433Z,1.60
2018-12-12T03:00:08.288Z,1.60
2018-12-12T03:02:37.698Z,1.60
2018-12-12T03:05:06.606Z,1.60
2018-12-12T03:07:35.204Z,1.60
2018-12-12T03:10:03.921Z,1.60
2018-12-12T03:12:32.477Z,1.60
2018-12-12T03:15:01.001Z,1.60
2018-12-12T03:17:29.656Z,1.60
2018-12-12T03:19:58.204Z,1.60
2018-12-12T03:22:26.970Z,1.60
2018-12-12T03:24:55.532Z,1.60
2018-12-12T03:27:24.238Z,1.60
2018-12-12T03:29:52.731Z,1.60
2018-12-12T03:32:21.308Z,1.60
2018-12-12T03:34:49.829Z,1.60
2018-12-12T03:37:18.574Z,1.60
2018-12-12T03:39:47.103Z,1.60
2018-12-12T03:42:15.639Z,1.60
2018-12-12T03:44:44.137Z,1.60
2018-12-12T03:47:12.641Z,1.50
2018-12-12T03:49:41.127Z,1.60
2018-12-12T03:52:09.650Z,1.50
2018-12-12T03:54:38.233Z,1.50
2018-12-12T03:57:06.809Z,1.50
2018-12-12T03:59:35.646Z,1.60
2018-12-12T04:02:04.229Z,1.60
2018-12-12T04:04:32.778Z,1.60
2018-12-12T04:07:01.570Z,1.60
2018-12-12T04:09:30.091Z,1.50
2018-12-12T04:11:58.662Z,1.50
2018-12-12T04:14:27.766Z,1.50
2018-12-12T04:16:56.334Z,1.50
2018-12-12T04:19:25.045Z,1.50
2018-12-12T04:21:53.890Z,1.50
2018-12-12T04:24:24.497Z,1.50
2018-12-12T04:26:53.003Z,1.50
2018-12-12T04:29:21.898Z,1.50
2018-12-12T04:31:50.413Z,1.50
2018-12-12T04:34:18.916Z,1.50
2018-12-12T04:36:47.494Z,1.50
2018-12-12T04:39:16.123Z,1.50
2018-12-12T04:41:44.643Z,1.50
2018-12-12T04:44:13.157Z,1.50
2018-12-12T04:46:41.703Z,1.50
2018-12-12T04:49:10.383Z,1.50
2018-12-12T04:51:39.112Z,1.50
2018-12-12T04:54:07.604Z,1.50
2018-12-12T04:56:36.132Z,1.50
2018-12-12T04:59:05.258Z,1.50
2018-12-12T05:01:34.056Z,1.50
2018-12-12T05:04:02.609Z,1.50
2018-12-12T05:06:31.172Z,1.50
2018-12-12T05:08:59.713Z,1.50
2018-12-12T05:11:28.292Z,1.50
2018-12-12T05:13:56.831Z,1.50
2018-12-12T05:16:25.807Z,1.50
2018-12-12T05:18:54.307Z,1.50
2018-12-12T05:21:22.882Z,1.50
2018-12-12T05:23:51.611Z,1.50
2018-12-12T05:26:20.435Z,1.50
2018-12-12T05:28:48.977Z,1.50
2018-12-12T05:31:17.509Z,1.50
2018-12-12T05:33:46.046Z,1.50
2018-12-12T05:36:14.566Z,1.50
2018-12-12T05:38:43.139Z,1.50
2018-12-12T05:41:11.692Z,1.50
2018-12-12T05:43:40.298Z,1.50
2018-12-12T05:46:08.780Z,1.50
2018-12-12T05:48:37.318Z,1.50
2018-12-12T05:51:05.799Z,1.50
2018-12-12T05:53:34.285Z,1.50
2018-12-12T05:56:02.798Z,1.50
2018-12-12T05:58:31.364Z,1.50
2018-12-12T06:00:59.951Z,1.50
2018-12-12T06:03:28.439Z,1.50
2018-12-12T06:05:56.915Z,1.50
2018-12-12T06:08:25.426Z,1.50
2018-12-12T06:10:54.220Z,1.50
2018-12-12T06:13:22.744Z,1.50
2018-12-12T06:15:51.270Z,1.50
2018-12-12T06:18:19.795Z,1.50
2018-12-12T06:20:48.365Z,1.50
2018-12-12T06:23:17.132Z,1.50
2018-12-12T06:25:46.145Z,1.50
2018-12-12T06:28:14.662Z,1.50
2018-12-12T06:30:43.138Z,1.50
2018-12-12T06:33:11.648Z,1.50
2018-12-12T06:35:40.197Z,1.50
2018-12-12T06:38:08.852Z,1.50
2018-12-12T06:40:37.385Z,1.50
2018-12-12T06:43:05.849Z,1.50
2018-12-12T06:45:34.435Z,1.50
2018-12-12T06:48:03.025Z,1.60
2018-12-12T06:50:31.639Z,1.60
2018-12-12T06:53:00.242Z,1.60
2018-12-12T06:55:28.768Z,1.60
2018-12-12T06:57:57.305Z,1.60
2018-12-12T07:00:25.795Z,1.60
2018-12-12T07:02:54.229Z,1.60
2018-12-12T07:05:22.773Z,1.60
2018-12-12T07:07:51.228Z,1.60
2018-12-12T07:10:19.671Z,1.60
2018-12-12T07:12:48.295Z,1.60
2018-12-12T07:15:16.814Z,1.70
2018-12-12T07:17:45.305Z,1.60
2018-12-12T07:20:13.835Z,1.70
2018-12-12T07:22:43.145Z,1.70
2018-12-12T07:25:12.025Z,1.70
2018-12-12T07:27:40.573Z,1.70
2018-12-12T07:30:09.471Z,1.70
2018-12-12T07:32:37.960Z,1.70
2018-12-12T07:35:06.556Z,1.80
2018-12-12T07:37:35.067Z,1.70
2018-12-12T07:40:03.728Z,1.80
2018-12-12T07:42:32.232Z,1.80
2018-12-12T07:45:00.675Z,1.80
2018-12-12T07:47:29.161Z,1.80
2018-12-12T07:49:57.678Z,1.80
2018-12-12T07:52:26.220Z,1.80
2018-12-12T07:54:54.741Z,1.80
2018-12-12T07:57:23.896Z,1.90
2018-12-12T07:59:52.381Z,1.90
2018-12-12T08:02:22.323Z,1.90
2018-12-12T08:04:50.994Z,1.90
2018-12-12T08:07:19.505Z,1.90
2018-12-12T08:09:48.161Z,1.90
2018-12-12T08:12:17.493Z,1.90
2018-12-12T08:14:46.252Z,1.90
2018-12-12T08:17:14.731Z,2.00
2018-12-12T08:19:43.174Z,2.00
2018-12-12T08:22:11.671Z,2.00
2018-12-12T08:24:40.141Z,2.00
2018-12-12T08:27:08.638Z,2.00
2018-12-12T08:29:37.300Z,2.00
2018-12-12T08:32:05.828Z,2.00
2018-12-12T08:34:34.372Z,2.00
2018-12-12T08:37:02.856Z,2.00
2018-12-12T08:39:31.319Z,2.00
2018-12-12T08:41:59.895Z,2.00
2018-12-12T08:44:28.365Z,2.00
2018-12-12T08:46:56.866Z,2.00
2018-12-12T08:49:26.264Z,2.00
2018-12-12T08:51:55.002Z,2.00
2018-12-12T08:54:23.554Z,2.00
2018-12-12T08:56:52.984Z,2.10
2018-12-12T08:59:21.473Z,2.10
2018-12-12T09:01:50.015Z,2.10
2018-12-12T09:04:18.545Z,2.10
2018-12-12T09:06:47.016Z,2.10
2018-12-12T09:09:15.486Z,2.20
2018-12-12T09:11:44.030Z,2.20
2018-12-12T09:14:12.492Z,2.20
2018-12-12T09:16:41.301Z,2.10
2018-12-12T09:19:09.905Z,2.10
2018-12-12T09:21:38.459Z,2.10
2018-12-12T09:24:06.979Z,2.10
2018-12-12T09:26:35.470Z,2.20
2018-12-12T09:29:04.005Z,2.20
2018-12-12T09:31:33.039Z,2.20
2018-12-12T09:34:01.542Z,2.20
2018-12-12T09:36:29.998Z,2.20
2018-12-12T09:38:58.439Z,2.20
2018-12-12T09:41:27.080Z,2.20
2018-12-12T09:43:55.552Z,2.20
2018-12-12T09:46:24.385Z,2.20
2018-12-12T09:48:53.133Z,2.20
2018-12-12T09:51:21.640Z,2.30
2018-12-12T09:53:50.245Z,2.30
2018-12-12T09:56:18.692Z,2.30
2018-12-12T09:58:47.152Z,2.30
2018-12-12T10:01:15.747Z,2.30
2018-12-12T10:03:44.219Z,2.40
2018-12-12T10:06:12.744Z,2.40
2018-12-12T10:08:41.231Z,2.40
2018-12-12T10:11:09.724Z,2.50
2018-12-12T10:13:38.267Z,2.50
2018-12-12T10:16:06.793Z,2.40
2018-12-12T10:18:35.477Z,2.40
2018-12-12T10:21:03.961Z,2.40
2018-12-12T10:23:32.454Z,2.40
2018-12-12T10:26:00.966Z,2.40
2018-12-12T10:28:29.497Z,2.40
2018-12-12T10:30:58.034Z,2.40
2018-12-12T10:33:26.513Z,2.40
2018-12-12T10:35:54.971Z,2.40
2018-12-12T10:38:23.432Z,2.40
2018-12-12T10:40:51.931Z,2.40
2018-12-12T10:43:20.410Z,2.40
2018-12-12T10:45:48.936Z,2.30
2018-12-12T10:48:17.411Z,2.30
2018-12-12T10:50:45.998Z,2.30
2018-12-12T10:53:14.664Z,2.30
2018-12-12T10:55:43.179Z,2.40
2018-12-12T10:58:11.635Z,2.40
2018-12-12T11:00:42.377Z,2.40
2018-12-12T11:03:16.423Z,2.30
2018-12-12T11:05:44.885Z,2.40
2018-12-12T11:08:13.736Z,2.40
2018-12-12T11:10:42.624Z,2.40
2018-12-12T11:13:11.126Z,2.40
2018-12-12T11:15:40.115Z,2.40
2018-12-12T11:18:08.607Z,2.40
2018-12-12T11:20:37.070Z,2.40
2018-12-12T11:23:05.635Z,2.40
2018-12-12T11:25:34.436Z,2.40
2018-12-12T11:28:03.119Z,2.50
2018-12-12T11:30:32.009Z,2.50
2018-12-12T11:33:00.493Z,2.50
2018-12-12T11:35:28.980Z,2.50
2018-12-12T11:37:57.660Z,2.50
2018-12-12T11:40:26.167Z,2.50
2018-12-12T11:42:54.871Z,2.50
2018-12-12T11:45:23.617Z,2.50
2018-12-12T11:47:52.268Z,2.60
2018-12-12T11:50:21.100Z,2.60
2018-12-12T11:52:49.556Z,2.60
2018-12-12T11:55:18.044Z,2.60
2018-12-12T11:57:46.836Z,2.60
2018-12-12T12:00:15.435Z,2.60
2018-12-12T12:02:43.939Z,2.60
2018-12-12T12:05:12.437Z,2.60
2018-12-12T12:07:40.979Z,2.60
2018-12-12T12:10:10.917Z,2.60
2018-12-12T12:12:39.466Z,2.60
2018-12-12T12:15:08.883Z,2.60
2018-12-12T12:17:37.518Z,2.60
2018-12-12T12:20:06.837Z,2.60
2018-12-12T12:22:35.327Z,2.60
2018-12-12T12:25:04.430Z,2.70
2018-12-12T12:27:32.935Z,2.60
2018-12-12T12:30:01.411Z,2.60
2018-12-12T12:32:29.906Z,2.60
2018-12-12T12:34:58.498Z,2.60
2018-12-12T12:37:27.005Z,2.60
2018-12-12T12:39:55.479Z,2.60
2018-12-12T12:42:23.945Z,2.50
2018-12-12T12:44:52.417Z,2.60
2018-12-12T12:47:21.017Z,2.50
2018-12-12T12:49:49.500Z,2.50
2018-12-12T12:52:17.999Z,2.40
2018-12-12T12:54:46.535Z,2.30
2018-12-12T12:57:15.174Z,2.30
2018-12-12T12:59:43.902Z,2.30
2018-12-12T13:02:12.498Z,2.20
2018-12-12T13:04:41.053Z,2.30
2018-12-12T13:07:09.676Z,2.20
2018-12-12T13:09:38.923Z,2.20
2018-12-12T13:12:07.720Z,2.30
2018-12-12T13:14:36.500Z,2.30
2018-12-12T13:17:05.285Z,2.20
2018-12-12T13:19:33.807Z,2.20
2018-12-12T13:22:02.342Z,2.20
2018-12-12T13:24:30.878Z,2.20
2018-12-12T13:26:59.452Z,2.10
2018-12-12T13:29:27.909Z,2.10
2018-12-12T13:31:56.426Z,2.00
2018-12-12T13:34:24.893Z,2.00
2018-12-12T13:36:53.396Z,1.90
2018-12-12T13:39:22.131Z,1.90
2018-12-12T13:41:50.652Z,1.90
2018-12-12T13:44:19.403Z,1.90
2018-12-12T13:46:47.908Z,1.90
2018-12-12T13:49:16.410Z,1.90
2018-12-12T13:51:45.152Z,1.80
2018-12-12T13:54:13.703Z,1.80
2018-12-12T13:56:42.194Z,1.80
2018-12-12T13:59:10.716Z,1.80
2018-12-12T14:01:39.559Z,1.80
2018-12-12T14:04:08.072Z,1.80
2018-12-12T14:06:36.586Z,1.80
2018-12-12T14:09:06.962Z,1.70
2018-12-12T14:11:35.660Z,1.80
2018-12-12T14:14:04.290Z,1.80
2018-12-12T14:16:32.763Z,1.70
2018-12-12T14:19:01.287Z,1.70
2018-12-12T14:21:30.015Z,1.70
2018-12-12T14:23:58.513Z,1.70
2018-12-12T14:26:27.364Z,1.70
2018-12-12T14:28:55.987Z,1.80
2018-12-12T14:31:24.656Z,1.80
2018-12-12T14:33:53.221Z,1.80
2018-12-12T14:36:21.667Z,1.70
2018-12-12T14:38:50.182Z,1.80
2018-12-12T14:41:18.715Z,1.70
2018-12-12T14:43:47.348Z,1.70
2018-12-12T14:46:17.350Z,1.70
2018-12-12T14:48:45.922Z,1.70
2018-12-12T14:51:14.386Z,1.70
2018-12-12T14:53:43.113Z,1.70
2018-12-12T14:56:11.569Z,1.70
2018-12-12T14:58:40.069Z,1.80
2018-12-12T15:01:08.552Z,1.70
2018-12-12T15:03:37.081Z,1.70
2018-12-12T15:06:05.584Z,1.80
2018-12-12T15:08:34.095Z,1.80
2018-12-12T15:11:02.659Z,1.70
2018-12-12T15:13:31.132Z,1.70
2018-12-12T15:15:59.624Z,1.70
2018-12-12T15:18:28.119Z,1.70
2018-12-12T15:20:56.570Z,1.70
2018-12-12T15:23:25.042Z,1.70
2018-12-12T15:25:53.514Z,1.70
2018-12-12T15:28:21.965Z,1.60
2018-12-12T15:30:50.681Z,1.60
2018-12-12T15:33:19.434Z,1.60
2018-12-12T15:35:47.918Z,1.60
2018-12-12T15:38:16.520Z,1.60
2018-12-12T15:40:44.954Z,1.60
2018-12-12T15:43:13.395Z,1.60
2018-12-12T15:45:41.858Z,1.60
2018-12-12T15:48:10.617Z,1.60
2018-12-12T15:50:39.130Z,1.60
2018-12-12T15:53:08.177Z,1.50
2018-12-12T15:55:36.894Z,1.60
2018-12-12T15:58:05.489Z,1.60
2018-12-12T16:00:34.129Z,1.60
2018-12-12T16:03:02.758Z,1.50
2018-12-12T16:05:31.218Z,1.60
2018-12-12T16:07:59.760Z,1.50
2018-12-12T16:10:28.483Z,1.60
2018-12-12T16:12:57.065Z,1.60
2018-12-12T16:15:25.563Z,1.60
2018-12-12T16:17:54.036Z,1.60
2018-12-12T16:20:22.516Z,1.60
2018-12-12T16:22:51.192Z,1.60
2018-12-12T16:25:19.754Z,1.60
2018-12-12T16:27:48.208Z,1.60
2018-12-12T16:30:16.839Z,1.60
2018-12-12T16:32:45.306Z,1.60
2018-12-12T16:35:13.924Z,1.60
2018-12-12T16:37:42.393Z,1.60
2018-12-12T16:40:11.035Z,1.60
2018-12-12T16:42:39.754Z,1.60
2018-12-12T16:45:08.747Z,1.60
2018-12-12T16:47:37.228Z,1.60
2018-12-12T16:50:07.023Z,1.60
2018-12-12T16:52:35.659Z,1.60
2018-12-12T16:55:04.719Z,1.70
2018-12-12T16:57:33.185Z,1.60
2018-12-12T17:00:01.682Z,1.60
2018-12-12T17:02:30.174Z,1.60
2018-12-12T17:05:02.263Z,1.60
2018-12-12T17:07:29.251Z,1.70
2018-12-12T17:09:58.060Z,1.70
2018-12-12T17:12:26.547Z,1.70
2018-12-12T17:14:55.074Z,1.70
2018-12-12T17:17:23.554Z,1.70
2018-12-12T17:19:52.107Z,1.70
2018-12-12T17:22:20.602Z,1.70
2018-12-12T17:24:49.027Z,1.70
2018-12-12T17:27:17.595Z,1.70
2018-12-12T17:29:46.093Z,1.70
2018-12-12T17:32:14.615Z,1.70
2018-12-12T17:34:43.099Z,1.80
2018-12-12T17:37:11.605Z,1.70
2018-12-12T17:39:40.099Z,1.70
2018-12-12T17:42:08.575Z,1.70
2018-12-12T17:44:37.020Z,1.70
2018-12-12T17:47:06.134Z,1.70
2018-12-12T17:49:34.607Z,1.70
2018-12-12T17:52:03.348Z,1.70
2018-12-12T17:54:32.005Z,1.70
2018-12-12T17:57:00.504Z,1.70
2018-12-12T17:59:28.996Z,1.70
2018-12-12T18:01:57.612Z,1.70
2018-12-12T18:04:26.208Z,1.70
2018-12-12T18:06:54.667Z,1.80
2018-12-12T18:09:23.123Z,1.70
2018-12-12T18:11:51.595Z,1.70
2018-12-12T18:14:21.020Z,1.70
2018-12-12T18:16:49.527Z,1.70
2018-12-12T18:19:18.044Z,1.70
2018-12-12T18:21:46.563Z,1.70
2018-12-12T18:24:15.032Z,1.70
2018-12-12T18:26:43.500Z,1.70
2018-12-12T18:29:12.351Z,1.70
2018-12-12T18:31:41.106Z,1.70
2018-12-12T18:34:09.876Z,1.70
2018-12-12T18:36:38.385Z,1.70
2018-12-12T18:39:08.199Z,1.80
2018-12-12T18:41:36.693Z,1.80
2018-12-12T18:44:05.251Z,1.80
2018-12-12T18:46:33.961Z,1.80
2018-12-12T18:49:02.453Z,1.80
2018-12-12T18:51:31.131Z,1.80
2018-12-12T18:53:59.665Z,1.80
2018-12-12T18:56:28.110Z,1.70
2018-12-12T18:58:56.607Z,1.70
2018-12-12T19:01:25.149Z,1.70
2018-12-12T19:03:54.085Z,1.60
2018-12-12T19:06:22.655Z,1.60
2018-12-12T19:08:51.329Z,1.60
2018-12-12T19:11:19.838Z,1.60
2018-12-12T19:13:48.364Z,1.60
2018-12-12T19:16:17.144Z,1.60
2018-12-12T19:18:45.691Z,1.50
2018-12-12T19:21:14.244Z,1.50
2018-12-12T19:23:43.304Z,1.50
2018-12-12T19:26:11.758Z,1.40
2018-12-12T19:28:40.255Z,1.40
2018-12-12T19:31:08.989Z,1.40
2018-12-12T19:33:37.582Z,1.40
2018-12-12T19:36:06.116Z,1.30
2018-12-12T19:38:34.754Z,1.30
2018-12-12T19:41:03.231Z,1.30
2018-12-12T19:43:32.890Z,1.30
2018-12-12T19:46:01.804Z,1.30
2018-12-12T19:48:30.306Z,1.20
2018-12-12T19:50:59.048Z,1.20
2018-12-12T19:53:28.896Z,1.20
2018-12-12T19:55:57.703Z,1.20
2018-12-12T19:58:26.376Z,1.20
2018-12-12T20:00:55.637Z,1.20
2018-12-12T20:03:25.012Z,1.20
2018-12-12T20:05:53.675Z,1.10
2018-12-12T20:08:22.163Z,1.10
2018-12-12T20:10:50.928Z,1.10
2018-12-12T20:13:19.778Z,1.10
2018-12-12T20:15:48.669Z,1.10
2018-12-12T20:18:17.570Z,1.00
2018-12-12T20:20:47.780Z,1.00
2018-12-12T20:23:16.317Z,1.00
2018-12-12T20:25:44.868Z,0.90
2018-12-12T20:28:13.746Z,1.00
2018-12-12T20:30:42.524Z,0.90
2018-12-12T20:33:11.228Z,0.90
2018-12-12T20:35:39.816Z,0.90
2018-12-12T20:38:12.621Z,0.90
2018-12-12T20:40:41.470Z,0.90
2018-12-12T20:43:09.995Z,0.90
2018-12-12T20:45:38.547Z,0.90
2018-12-12T20:48:07.445Z,0.90
2018-12-12T20:50:36.060Z,0.90
2018-12-12T20:53:04.792Z,0.90
2018-12-12T20:55:33.582Z,0.90
2018-12-12T20:58:02.118Z,0.90
2018-12-12T21:00:30.650Z,0.90
2018-12-12T21:02:59.192Z,0.90
2018-12-12T21:05:27.716Z,0.90
2018-12-12T21:07:56.268Z,0.90
2018-12-12T21:10:24.930Z,0.80
2018-12-12T21:12:53.454Z,0.80
2018-12-12T21:15:22.248Z,0.80
2018-12-12T21:17:50.807Z,0.70
2018-12-12T21:20:19.401Z,0.80
2018-12-12T21:22:48.149Z,0.80
2018-12-12T21:25:16.886Z,0.80
2018-12-12T21:27:45.624Z,0.80
2018-12-12T21:30:17.203Z,0.80
2018-12-12T21:32:44.903Z,0.80
2018-12-12T21:35:13.634Z,0.70
2018-12-12T21:37:49.483Z,0.70
2018-12-12T21:40:18.014Z,0.70
2018-12-12T21:42:46.667Z,0.80
2018-12-12T21:45:15.595Z,0.70
2018-12-12T21:47:44.092Z,0.70
2018-12-12T21:50:12.663Z,0.70
2018-12-12T21:52:41.416Z,0.70
2018-12-12T21:55:09.996Z,0.70
2018-12-12T21:57:38.915Z,0.60
2018-12-12T22:00:09.618Z,0.70
2018-12-12T22:02:38.334Z,0.60
2018-12-12T22:05:08.137Z,0.60
2018-12-12T22:07:36.975Z,0.60
2018-12-12T22:10:06.599Z,0.60
2018-12-12T22:12:35.333Z,0.60
2018-12-12T22:15:05.154Z,0.60
2018-12-12T22:17:34.039Z,0.50
2018-12-12T22:20:02.940Z,0.50
2018-12-12T22:22:31.557Z,0.40
2018-12-12T22:25:00.285Z,0.40
2018-12-12T22:27:29.701Z,0.30
2018-12-12T22:29:59.381Z,0.30
2018-12-12T22:32:35.888Z,0.20
2018-12-12T22:35:06.203Z,0.30
2018-12-12T22:37:35.984Z,0.30
2018-12-12T22:40:05.965Z,0.30
2018-12-12T22:42:35.529Z,0.30
2018-12-12T22:45:09.860Z,0.30
2018-12-12T22:47:39.114Z,0.30
2018-12-12T22:50:10.459Z,0.30
2018-12-12T22:52:40.007Z,0.30
2018-12-12T22:55:10.328Z,0.30
2018-12-12T22:57:41.063Z,0.30
2018-12-12T23:00:14.882Z,0.30
2018-12-12T23:06:20.420Z,0.40
2018-12-12T23:08:46.653Z,0.30
2018-12-12T23:11:15.844Z,0.30
2018-12-12T23:13:44.981Z,0.30
2018-12-12T23:16:13.927Z,0.40
2018-12-12T23:18:42.764Z,0.30
2018-12-12T23:21:11.358Z,0.40
2018-12-12T23:23:40.570Z,0.30
2018-12-12T23:26:09.343Z,0.30
2018-12-12T23:28:37.914Z,0.30
2018-12-12T23:31:06.626Z,0.30
2018-12-12T23:33:35.306Z,0.40
2018-12-12T23:36:03.999Z,0.40
2018-12-12T23:38:32.686Z,0.30
2018-12-12T23:41:01.603Z,0.30
2018-12-12T23:43:30.391Z,0.40
2018-12-12T23:45:58.929Z,0.40
2018-12-12T23:48:27.453Z,0.30
2018-12-12T23:50:55.961Z,0.40
2018-12-12T23:53:24.577Z,0.30
2018-12-12T23:55:53.233Z,0.30
2018-12-12T23:58:21.993Z,0.30
